createdAt,value
2022-09-12T00:00:39.270Z,99245.59
2022-09-12T00:03:09.519Z,99238.16
2022-09-12T00:05:45.702Z,99248.25
2022-09-12T00:08:19.772Z,99229.22
2022-09-12T00:10:49.450Z,99240.06
2022-09-12T00:13:20.082Z,99223.22
2022-09-12T00:15:50.488Z,99274.31
2022-09-12T00:18:20.494Z,99239.03
2022-09-12T00:20:49.511Z,99222.44
2022-09-12T00:23:16.881Z,99224.66
2022-09-12T00:25:46.743Z,99206.72
2022-09-12T00:28:20.643Z,99194.47
2022-09-12T00:30:49.582Z,99216.22
2022-09-12T00:33:20.047Z,99213.50
2022-09-12T00:35:54.272Z,99218.69
2022-09-12T00:38:24.452Z,99217.88
2022-09-12T00:40:51.634Z,99204.28
2022-09-12T00:43:43.760Z,99228.81
2022-09-12T00:46:44.686Z,99212.47
2022-09-12T00:49:39.786Z,99214.59
2022-09-12T00:52:53.318Z,99225.00
2022-09-12T00:55:26.572Z,99204.63
2022-09-12T00:58:09.624Z,99224.72
2022-09-12T01:00:39.091Z,99207.88
2022-09-12T01:03:20.718Z,99199.88
2022-09-12T01:06:09.005Z,99211.31
2022-09-12T01:08:43.183Z,99215.69
2022-09-12T01:11:16.119Z,99190.13
2022-09-12T01:13:50.082Z,99199.94
2022-09-12T01:16:21.436Z,99195.06
2022-09-12T01:18:52.747Z,99214.13
2022-09-12T01:21:30.742Z,99217.03
2022-09-12T01:24:49.674Z,99214.38
2022-09-12T01:27:49.395Z,99229.00
2022-09-12T01:30:45.649Z,99203.81
2022-09-12T01:33:35.523Z,99208.41
2022-09-12T01:36:43.865Z,99204.63
2022-09-12T01:39:22.180Z,99218.16
2022-09-12T01:42:18.924Z,99209.22
2022-09-12T01:44:59.545Z,99208.41
2022-09-12T01:47:47.434Z,99202.66
2022-09-12T01:50:20.220Z,99182.53
2022-09-12T01:53:02.582Z,99206.19
2022-09-12T01:55:46.618Z,99174.41
2022-09-12T01:58:21.044Z,99201.84
2022-09-12T02:01:04.957Z,99197.78
2022-09-12T02:03:42.391Z,99173.59
2022-09-12T02:06:23.633Z,99177.66
2022-09-12T02:08:56.343Z,99187.44
2022-09-12T02:11:27.085Z,99165.47
2022-09-12T02:14:01.191Z,99187.16
2022-09-12T02:16:31.236Z,99172.59
2022-09-12T02:19:08.944Z,99186.69
2022-09-12T02:21:51.042Z,99200.22
2022-09-12T02:24:21.397Z,99176.94
2022-09-12T02:26:55.377Z,99163.06
2022-09-12T02:29:23.068Z,99181.25
2022-09-12T02:32:02.383Z,99171.22
2022-09-12T02:34:54.895Z,99194.09
2022-09-12T02:37:58.509Z,99188.91
2022-09-12T02:40:26.201Z,99191.56
2022-09-12T02:42:53.564Z,99169.25
2022-09-12T02:45:26.092Z,99180.97
2022-09-12T02:50:52.139Z,99186.19
2022-09-12T02:53:37.105Z,99187.44
2022-09-12T02:56:52.199Z,99177.09
2022-09-12T02:59:29.010Z,99183.66
2022-09-12T03:02:28.954Z,99200.84
2022-09-12T03:05:17.304Z,99197.31
2022-09-12T03:07:53.737Z,99201.09
2022-09-12T03:10:42.125Z,99160.03
2022-09-12T03:13:18.706Z,99176.00
2022-09-12T03:16:23.572Z,99203.53
2022-09-12T03:19:02.252Z,99204.03
2022-09-12T03:21:57.853Z,99202.72
2022-09-12T03:24:33.419Z,99171.91
2022-09-12T03:27:04.812Z,99205.66
2022-09-12T03:29:34.761Z,99218.91
2022-09-12T03:32:09.836Z,99181.97
2022-09-12T03:34:41.685Z,99179.78
2022-09-12T03:37:09.267Z,99207.00
2022-09-12T03:39:40.541Z,99179.00
2022-09-12T03:42:07.869Z,99177.63
2022-09-12T03:44:37.944Z,99183.06
2022-09-12T03:47:11.429Z,99160.84
2022-09-12T03:49:41.866Z,99183.16
2022-09-12T03:52:14.903Z,99191.28
2022-09-12T03:54:42.352Z,99198.66
2022-09-12T03:57:26.656Z,99171.13
2022-09-12T03:59:59.601Z,99169.28
2022-09-12T04:02:32.463Z,99180.22
2022-09-12T04:15:40.890Z,99180.25
2022-09-12T04:18:17.619Z,99184.88
2022-09-12T04:21:46.524Z,99183.25
2022-09-12T04:24:14.069Z,99176.75
2022-09-12T04:26:49.193Z,99200.34
2022-09-12T04:29:23.168Z,99180.78
2022-09-12T04:31:57.799Z,99169.38
2022-09-12T04:34:25.067Z,99186.03
2022-09-12T04:37:02.524Z,99186.84
2022-09-12T04:39:32.540Z,99165.41
2022-09-12T04:42:06.229Z,99167.59
2022-09-12T04:44:33.352Z,99183.59
2022-09-12T04:47:03.615Z,99192.88
2022-09-12T04:49:33.174Z,99192.06
2022-09-12T04:52:08.288Z,99188.25
2022-09-12T04:54:38.226Z,99190.72
2022-09-12T04:57:06.025Z,99190.16
2022-09-12T04:59:33.312Z,99183.94
2022-09-12T05:02:00.373Z,99181.53
2022-09-12T05:04:32.599Z,99184.22
2022-09-12T05:07:14.176Z,99176.09
2022-09-12T05:09:51.068Z,99167.94
2022-09-12T05:12:28.849Z,99180.72
2022-09-12T05:15:10.294Z,99188.31
2022-09-12T05:18:39.938Z,99187.22
2022-09-12T05:21:12.570Z,99160.09
2022-09-12T05:23:50.896Z,99172.84
2022-09-12T05:26:29.464Z,99163.63
2022-09-12T05:29:28.155Z,99171.75
2022-09-12T05:31:56.858Z,99187.75
2022-09-12T05:34:38.629Z,99172.84
2022-09-12T05:37:52.023Z,99191.03
2022-09-12T05:40:19.867Z,99165.50
2022-09-12T05:42:50.659Z,99151.94
2022-09-12T05:45:21.406Z,99166.03
2022-09-12T05:47:55.670Z,99167.13
2022-09-12T05:50:25.782Z,99181.25
2022-09-12T05:52:57.839Z,99153.03
2022-09-12T05:55:32.125Z,99156.28
2022-09-12T05:58:20.173Z,99146.50
2022-09-12T06:03:57.982Z,99161.97
2022-09-12T06:06:29.696Z,99143.47
2022-09-12T06:12:17.715Z,99141.53
2022-09-12T06:14:57.570Z,99148.59
2022-09-12T06:17:36.996Z,99141.44
2022-09-12T06:20:16.778Z,99144.34
2022-09-12T06:22:49.359Z,99142.13
2022-09-12T06:25:16.720Z,99142.38
2022-09-12T06:27:55.754Z,99148.81
2022-09-12T06:34:13.647Z,99180.94
2022-09-12T06:37:52.799Z,99169.13
2022-09-12T06:40:25.550Z,99141.75
2022-09-12T06:44:09.447Z,99168.97
2022-09-12T06:46:52.299Z,99147.03
2022-09-12T06:49:29.242Z,99130.41
2022-09-12T06:52:14.721Z,99146.94
2022-09-12T06:54:42.552Z,99170.97
2022-09-12T06:57:09.723Z,99150.56
2022-09-12T06:59:36.910Z,99170.03
2022-09-12T07:02:04.028Z,99166.72
2022-09-12T07:04:33.801Z,99166.59
2022-09-12T07:07:01.419Z,99168.19
2022-09-12T07:09:31.106Z,99189.59
2022-09-12T07:11:58.222Z,99162.75
2022-09-12T07:14:28.650Z,99191.97
2022-09-12T07:16:55.758Z,99190.00
2022-09-12T07:19:23.282Z,99168.53
2022-09-12T07:21:56.604Z,99182.59
2022-09-12T07:24:30.370Z,99184.72
2022-09-12T07:26:57.599Z,99189.38
2022-09-12T07:29:36.376Z,99178.81
2022-09-12T07:32:06.063Z,99175.66
2022-09-12T07:34:34.360Z,99168.78
2022-09-12T07:37:01.826Z,99193.31
2022-09-12T07:39:29.104Z,99195.22
2022-09-12T07:41:56.209Z,99185.59
2022-09-12T07:44:25.835Z,99196.59
2022-09-12T07:46:52.927Z,99193.78
2022-09-12T07:49:20.154Z,99195.22
2022-09-12T07:51:47.221Z,99193.63
2022-09-12T07:54:16.011Z,99195.16
2022-09-12T07:56:43.198Z,99177.56
2022-09-12T07:59:11.463Z,99176.22
2022-09-12T08:01:46.987Z,99181.84
2022-09-12T08:04:14.151Z,99175.59
2022-09-12T08:06:41.423Z,99187.28
2022-09-12T08:09:09.002Z,99196.91
2022-09-12T08:11:36.344Z,99203.09
2022-09-12T08:14:05.839Z,99197.72
2022-09-12T08:16:33.787Z,99204.72
2022-09-12T08:19:02.282Z,99204.19
2022-09-12T08:21:34.740Z,99216.72
2022-09-12T08:24:07.042Z,99218.38
2022-09-12T08:26:35.190Z,99197.78
2022-09-12T08:29:02.976Z,99178.41
2022-09-12T08:31:36.559Z,99197.94
2022-09-12T08:34:05.688Z,99200.66
2022-09-12T08:36:33.862Z,99199.28
2022-09-12T08:39:03.572Z,99193.53
2022-09-12T08:41:32.022Z,99197.88
2022-09-12T08:44:20.292Z,99195.41
2022-09-12T08:47:11.803Z,99197.78
2022-09-12T08:49:51.675Z,99180.25
2022-09-12T08:52:42.749Z,99175.31
2022-09-12T08:55:28.697Z,99196.13
2022-09-12T08:57:55.695Z,99184.59
2022-09-12T09:00:22.955Z,99195.22
2022-09-12T09:03:07.403Z,99197.84
2022-09-12T09:05:49.656Z,99189.78
2022-09-12T09:08:22.891Z,99190.50
2022-09-12T09:11:08.296Z,99186.50
2022-09-12T09:14:05.470Z,99187.31
2022-09-12T09:16:32.694Z,99180.66
2022-09-12T09:19:04.647Z,99193.72
2022-09-12T09:21:41.156Z,99183.09
2022-09-12T09:24:13.836Z,99181.47
2022-09-12T09:26:51.094Z,99176.59
2022-09-12T09:29:22.546Z,99178.75
2022-09-12T09:31:53.234Z,99193.22
2022-09-12T09:34:24.471Z,99175.53
2022-09-12T09:37:19.223Z,99182.50
2022-09-12T09:40:20.960Z,99191.78
2022-09-12T09:43:11.444Z,99173.75
2022-09-12T09:45:43.430Z,99175.31
2022-09-12T09:48:24.622Z,99196.22
2022-09-12T09:51:11.530Z,99196.00
2022-09-12T09:54:07.265Z,99180.91
2022-09-12T09:56:43.120Z,99193.38
2022-09-12T09:59:35.412Z,99189.22
2022-09-12T10:02:14.369Z,99193.69
2022-09-12T10:04:55.330Z,99177.97
2022-09-12T10:07:24.750Z,99184.56
2022-09-12T10:10:16.840Z,99188.41
2022-09-12T10:12:58.712Z,99187.91
2022-09-12T10:15:55.767Z,99156.09
2022-09-12T10:19:03.568Z,99163.16
2022-09-12T10:22:19.455Z,99175.22
2022-09-12T10:24:56.523Z,99165.59
2022-09-12T10:27:34.952Z,99165.69
2022-09-12T10:30:17.899Z,99158.91
2022-09-12T10:33:28.887Z,99160.50
2022-09-12T10:36:07.297Z,99164.03
2022-09-12T10:38:37.043Z,99157.16
2022-09-12T10:41:07.398Z,99152.50
2022-09-12T10:43:34.527Z,99179.78
2022-09-12T10:46:19.883Z,99171.63
2022-09-12T10:48:52.957Z,99166.81
2022-09-12T10:51:25.902Z,99182.78
2022-09-12T10:53:56.685Z,99166.19
2022-09-12T10:56:58.420Z,99171.25
2022-09-12T10:59:40.473Z,99169.44
2022-09-12T11:02:30.024Z,99166.91
2022-09-12T11:05:09.863Z,99173.13
2022-09-12T11:08:23.086Z,99170.38
2022-09-12T11:11:18.691Z,99174.78
2022-09-12T11:14:09.384Z,99180.69
2022-09-12T11:16:42.836Z,99167.81
2022-09-12T11:19:38.448Z,99173.91
2022-09-12T11:22:15.249Z,99147.63
2022-09-12T11:25:21.219Z,99170.00
2022-09-12T11:28:01.245Z,99165.94
2022-09-12T11:30:47.935Z,99154.16
2022-09-12T11:33:43.119Z,99163.06
2022-09-12T11:36:37.446Z,99168.06
2022-09-12T11:39:22.198Z,99166.09
2022-09-12T11:42:05.077Z,99159.81
2022-09-12T11:44:46.365Z,99148.66
2022-09-12T11:47:16.575Z,99142.97
2022-09-12T11:49:51.845Z,99138.22
2022-09-12T11:52:20.097Z,99155.81
2022-09-12T11:55:04.143Z,99164.53
2022-09-12T11:57:41.718Z,99156.53
2022-09-12T12:00:59.420Z,99148.13
2022-09-12T12:03:55.694Z,99137.88
2022-09-12T12:06:49.678Z,99130.03
2022-09-12T12:09:42.661Z,99134.94
2022-09-12T12:12:21.747Z,99132.47
2022-09-12T12:14:51.737Z,99141.91
2022-09-12T12:17:27.544Z,99137.34
2022-09-12T12:20:06.696Z,99113.09
2022-09-12T12:22:56.549Z,99113.13
2022-09-12T12:25:52.644Z,99139.91
2022-09-12T12:28:43.856Z,99136.72
2022-09-12T12:31:11.542Z,99127.72
2022-09-12T12:33:38.781Z,99147.19
2022-09-12T12:36:10.569Z,99132.50
2022-09-12T12:38:45.779Z,99114.66
2022-09-12T12:41:21.378Z,99139.66
2022-09-12T12:43:53.315Z,99106.28
2022-09-12T12:46:32.946Z,99130.88
2022-09-12T12:49:00.208Z,99121.47
2022-09-12T12:51:36.013Z,99116.75
2022-09-12T12:54:30.856Z,99126.03
2022-09-12T12:57:13.401Z,99115.59
2022-09-12T13:00:00.331Z,99096.38
2022-09-12T13:02:32.882Z,99119.84
2022-09-12T13:05:03.121Z,99088.31
2022-09-12T13:07:42.776Z,99121.63
2022-09-12T13:10:24.163Z,99113.91
2022-09-12T13:12:52.338Z,99105.34
2022-09-12T13:15:39.222Z,99124.81
2022-09-12T13:18:17.422Z,99096.81
2022-09-12T13:20:51.130Z,99125.78
2022-09-12T13:23:45.392Z,99104.13
2022-09-12T13:26:24.215Z,99138.53
2022-09-12T13:29:11.860Z,99102.47
2022-09-12T13:31:45.275Z,99117.75
2022-09-12T13:34:25.557Z,99135.56
2022-09-12T13:37:23.298Z,99120.78
2022-09-12T13:40:12.066Z,99117.19
2022-09-12T13:42:56.898Z,99114.22
2022-09-12T13:45:44.815Z,99117.16
2022-09-12T13:48:45.583Z,99096.75
2022-09-12T13:51:40.295Z,99089.44
2022-09-12T13:54:29.323Z,99088.19
2022-09-12T13:56:57.208Z,99091.53
2022-09-12T13:59:25.430Z,99076.78
2022-09-12T14:01:55.205Z,99108.78
2022-09-12T14:04:48.583Z,99083.63
2022-09-12T14:07:20.414Z,99108.59
2022-09-12T14:09:56.193Z,99091.00
2022-09-12T14:12:32.248Z,99097.59
2022-09-12T14:15:28.493Z,99102.03
2022-09-12T14:18:01.726Z,99097.06
2022-09-12T14:20:37.215Z,99102.09
2022-09-12T14:23:29.441Z,99095.91
2022-09-12T14:26:02.855Z,99108.41
2022-09-12T14:28:31.522Z,99110.56
2022-09-12T14:31:08.265Z,99097.91
2022-09-12T14:33:57.608Z,99105.81
2022-09-12T14:36:30.543Z,99128.53
2022-09-12T14:39:06.508Z,99086.16
2022-09-12T14:41:38.508Z,99082.91
2022-09-12T14:44:10.652Z,99107.16
2022-09-12T14:46:42.959Z,99095.88
2022-09-12T14:49:32.569Z,99134.25
2022-09-12T14:52:03.049Z,99099.94
2022-09-12T14:54:34.030Z,99123.69
2022-09-12T14:57:04.322Z,99129.06
2022-09-12T14:59:39.784Z,99117.63
2022-09-12T15:02:22.101Z,99121.00
2022-09-12T15:05:14.998Z,99109.63
2022-09-12T15:07:50.918Z,99120.84
2022-09-12T15:10:37.808Z,99127.44
2022-09-12T15:13:14.465Z,99132.94
2022-09-12T15:15:44.728Z,99125.59
2022-09-12T15:18:12.291Z,99127.75
2022-09-12T15:20:41.229Z,99126.78
2022-09-12T15:23:16.250Z,99130.88
2022-09-12T15:25:43.639Z,99130.88
2022-09-12T15:28:31.199Z,99130.06
2022-09-12T15:31:05.918Z,99133.84
2022-09-12T15:33:33.249Z,99129.03
2022-09-12T15:36:00.706Z,99125.63
2022-09-12T15:38:28.142Z,99125.63
2022-09-12T15:40:55.981Z,99148.50
2022-09-12T15:43:23.988Z,63711.97
2022-09-12T15:45:52.419Z,63711.97
2022-09-12T15:48:21.218Z,63711.97
2022-09-12T15:50:48.620Z,63711.97
2022-09-12T15:53:17.225Z,63711.97
2022-09-12T15:55:44.765Z,99148.50
2022-09-12T15:58:12.121Z,99152.09
2022-09-12T16:00:39.782Z,99150.91
2022-09-12T16:03:07.127Z,63711.97
2022-09-12T16:05:34.533Z,63711.97
2022-09-12T16:08:02.031Z,63711.97
2022-09-12T16:10:33.091Z,63711.97
2022-09-12T16:13:04.567Z,99150.91
2022-09-12T16:15:34.316Z,99140.53
2022-09-12T16:18:05.315Z,99160.97
2022-09-12T16:20:32.871Z,99148.03
2022-09-12T16:23:00.125Z,99131.28
2022-09-12T16:25:29.351Z,99120.47
2022-09-12T16:27:59.325Z,99158.28
2022-09-12T16:30:39.736Z,99155.38
2022-09-12T16:33:50.486Z,99132.31
2022-09-12T16:36:26.368Z,99129.38
2022-09-12T16:38:56.809Z,99151.06
2022-09-12T16:41:29.790Z,99150.03
2022-09-12T16:43:57.132Z,99162.03
2022-09-12T16:46:31.618Z,99152.28
2022-09-12T16:49:09.299Z,99169.09
2022-09-12T16:51:37.055Z,99166.72
2022-09-12T16:54:05.187Z,99155.84
2022-09-12T16:56:32.723Z,99166.72
2022-09-12T16:59:39.314Z,99155.41
2022-09-12T17:03:24.004Z,99179.25
2022-09-12T17:06:09.383Z,99152.13
2022-09-12T17:09:19.072Z,99164.63
2022-09-12T17:11:59.217Z,99186.31
2022-09-12T17:14:52.896Z,99163.53
2022-09-12T17:17:23.452Z,99183.88
2022-09-12T17:19:54.293Z,99178.97
2022-09-12T17:26:00.227Z,99158.59
2022-09-12T17:39:22.571Z,99152.88
2022-09-12T17:42:00.228Z,99207.44
2022-09-12T17:47:50.694Z,99155.88
2022-09-12T17:50:31.466Z,99159.38
2022-09-12T17:53:00.771Z,99163.47
2022-09-12T17:55:32.659Z,99159.94
2022-09-12T17:58:13.818Z,99158.31
2022-09-12T18:04:21.974Z,99159.97
2022-09-12T18:07:12.466Z,99189.84
2022-09-12T18:10:28.842Z,99175.13
2022-09-12T18:16:19.170Z,99203.69
2022-09-12T18:18:52.871Z,99169.72
2022-09-12T18:21:20.223Z,99183.03
2022-09-12T18:23:47.810Z,99163.53
2022-09-12T18:26:19.293Z,99158.63
2022-09-12T18:28:50.481Z,99163.47
2022-09-12T18:31:21.299Z,99167.56
2022-09-12T18:33:49.268Z,99153.19
2022-09-12T18:36:19.021Z,99165.09
2022-09-12T18:38:48.234Z,99163.75
2022-09-12T18:41:18.440Z,99167.03
2022-09-12T18:43:49.112Z,99178.97
2022-09-12T18:46:19.159Z,99150.22
2022-09-12T18:48:46.955Z,99173.53
2022-09-12T18:51:20.211Z,99184.41
2022-09-12T18:53:56.488Z,99163.22
2022-09-12T18:56:26.621Z,99154.81
2022-09-12T18:58:58.203Z,99170.84
2022-09-12T19:01:31.520Z,99158.63
2022-09-12T19:04:01.127Z,99156.75
2022-09-12T19:06:39.783Z,99158.34
2022-09-12T19:09:09.187Z,99169.25
2022-09-12T19:11:49.465Z,99175.97
2022-09-12T19:14:26.313Z,99151.56
2022-09-12T19:16:54.125Z,99168.66
2022-09-12T19:19:21.761Z,99148.56
2022-09-12T19:21:48.980Z,99153.47
2022-09-12T19:24:17.364Z,99190.38
2022-09-12T19:26:47.450Z,99171.63
2022-09-12T19:29:17.053Z,99183.84
2022-09-12T19:31:45.324Z,99164.03
2022-09-12T19:34:13.622Z,99176.25
2022-09-12T19:36:46.002Z,99173.53
2022-09-12T19:39:19.803Z,99181.41
2022-09-12T19:41:50.942Z,99172.75
2022-09-12T19:44:20.773Z,99178.44
2022-09-12T19:47:06.040Z,99171.94
2022-09-12T19:49:36.558Z,99187.97
2022-09-12T19:52:03.812Z,99168.97
2022-09-12T19:54:45.525Z,99153.78
2022-09-12T19:57:13.493Z,99184.72
2022-09-12T19:59:46.650Z,99165.19
2022-09-12T20:02:17.050Z,99171.16
2022-09-12T20:04:45.553Z,99161.66
2022-09-12T20:07:13.264Z,99179.06
2022-09-12T20:09:43.139Z,99173.06
2022-09-12T20:12:14.608Z,99162.75
2022-09-12T20:14:45.022Z,99142.66
2022-09-12T20:17:12.573Z,99157.28
2022-09-12T20:19:39.954Z,99154.31
2022-09-12T20:22:07.587Z,99178.50
2022-09-12T20:24:34.742Z,99174.69
2022-09-12T20:27:01.729Z,99155.69
2022-09-12T20:29:28.772Z,99166.00
2022-09-12T20:31:55.838Z,99164.09
2022-09-12T20:34:22.887Z,99169.53
2022-09-12T20:36:50.009Z,99162.47
2022-09-12T20:39:19.924Z,99155.97
2022-09-12T20:41:50.015Z,99161.91
2022-09-12T20:44:17.337Z,99146.97
2022-09-12T20:46:45.126Z,99160.03
2022-09-12T20:49:12.128Z,99169.81
2022-09-12T20:51:39.131Z,99152.69
2022-09-12T20:54:07.283Z,99154.84
2022-09-12T20:56:36.332Z,99150.22
2022-09-12T20:59:05.074Z,99162.47
2022-09-12T21:01:32.350Z,99151.06
2022-09-12T21:04:01.175Z,99161.38
2022-09-12T21:06:28.593Z,99164.09
2022-09-12T21:08:59.940Z,99162.75
2022-09-12T21:11:28.471Z,99160.31
2022-09-12T21:13:55.725Z,99156.47
2022-09-12T21:16:23.763Z,99143.72
2022-09-12T21:19:08.854Z,99166.81
2022-09-12T21:21:36.381Z,99147.81
2022-09-12T21:24:03.902Z,99143.72
2022-09-12T21:26:33.899Z,99153.00
2022-09-12T21:29:00.973Z,99148.34
2022-09-12T21:31:28.075Z,99151.31
2022-09-12T21:33:55.151Z,99150.00
2022-09-12T21:36:22.313Z,99129.88
2022-09-12T21:38:49.973Z,99133.69
2022-09-12T21:41:17.390Z,99147.78
2022-09-12T21:43:44.564Z,99160.03
2022-09-12T21:46:11.885Z,99154.84
2022-09-12T21:48:39.073Z,99135.56
2022-09-12T21:51:06.756Z,99113.34
2022-09-12T21:53:33.787Z,99125.53
2022-09-12T21:56:03.462Z,99128.53
2022-09-12T21:58:30.413Z,99125.00
2022-09-12T22:00:57.623Z,99135.59
2022-09-12T22:03:26.171Z,99119.28
2022-09-12T22:06:01.891Z,99106.28
2022-09-12T22:08:30.380Z,99105.22
2022-09-12T22:11:02.277Z,99107.34
2022-09-12T22:13:33.850Z,99123.09
2022-09-12T22:16:03.124Z,99109.81
2022-09-12T22:18:33.609Z,99132.09
2022-09-12T22:21:01.703Z,99103.59
2022-09-12T22:23:47.257Z,99108.75
2022-09-12T22:26:14.668Z,99118.78
2022-09-12T22:28:43.041Z,99105.47
2022-09-12T22:31:12.219Z,99105.78
2022-09-12T22:33:39.850Z,99120.13
2022-09-12T22:36:08.070Z,99107.09
2022-09-12T22:38:35.081Z,99111.44
2022-09-12T22:41:07.469Z,99105.22
2022-09-12T22:43:35.433Z,99091.13
2022-09-12T22:46:06.621Z,99114.16
2022-09-12T22:48:34.177Z,99108.22
2022-09-12T22:51:03.259Z,99101.44
2022-09-12T22:53:30.401Z,99124.50
2022-09-12T22:55:57.474Z,99106.59
2022-09-12T22:58:24.588Z,99102.25
2022-09-12T23:00:52.824Z,99098.19
2022-09-12T23:03:21.047Z,99087.06
2022-09-12T23:05:48.770Z,99103.38
2022-09-12T23:08:20.033Z,99100.66
2022-09-12T23:10:47.268Z,99097.63
2022-09-12T23:13:14.568Z,99094.13
2022-09-12T23:15:41.881Z,99070.28
2022-09-12T23:18:09.078Z,99100.38
2022-09-12T23:20:36.286Z,99103.63
2022-09-12T23:23:03.371Z,99097.38
2022-09-12T23:25:31.102Z,99097.13
2022-09-12T23:27:58.996Z,99087.06
2022-09-12T23:30:26.236Z,99088.97
2022-09-12T23:32:53.563Z,99052.34
2022-09-12T23:35:22.610Z,99065.66
2022-09-12T23:37:50.226Z,99077.31
2022-09-12T23:40:18.727Z,99066.47
2022-09-12T23:42:48.025Z,99056.44
2022-09-12T23:45:15.887Z,99063.22
2022-09-12T23:47:43.614Z,99073.81
2022-09-12T23:50:11.759Z,99062.69
2022-09-12T23:52:47.453Z,99089.78
2022-09-12T23:55:14.946Z,99070.00
2022-09-12T23:57:42.227Z,99061.59
